createdAt,value
2023-04-23T00:02:03.118Z,7.25
2023-04-23T00:04:42.445Z,7.24
2023-04-23T00:07:16.542Z,7.23
2023-04-23T00:09:54.161Z,7.21
2023-04-23T00:12:28.031Z,7.20
2023-04-23T00:15:06.156Z,7.19
2023-04-23T00:17:40.354Z,7.18
2023-04-23T00:20:13.988Z,7.17
2023-04-23T00:22:46.360Z,7.15
2023-04-23T00:25:19.170Z,7.14
2023-04-23T00:27:51.495Z,7.12
2023-04-23T00:30:24.250Z,7.11
2023-04-23T00:32:59.320Z,7.09
2023-04-23T00:35:32.005Z,7.07
2023-04-23T00:38:05.413Z,7.06
2023-04-23T00:40:38.386Z,7.04
2023-04-23T00:43:11.787Z,7.02
2023-04-23T00:45:45.609Z,7.00
2023-04-23T00:48:18.416Z,6.98
2023-04-23T00:50:51.700Z,6.95
2023-04-23T00:53:23.901Z,6.92
2023-04-23T00:55:56.453Z,6.89
2023-04-23T00:58:29.047Z,6.87
2023-04-23T01:01:04.999Z,6.83
2023-04-23T01:03:41.175Z,6.78
2023-04-23T01:06:14.519Z,6.73
2023-04-23T01:08:48.463Z,6.72
2023-04-23T01:11:23.003Z,6.69
2023-04-23T01:13:55.825Z,6.67
2023-04-23T01:16:29.743Z,6.64
2023-04-23T01:19:02.470Z,6.61
2023-04-23T01:21:38.022Z,6.57
2023-04-23T01:24:11.303Z,6.52
2023-04-23T01:26:45.231Z,6.48
2023-04-23T01:29:18.407Z,6.45
2023-04-23T01:31:52.412Z,6.43
2023-04-23T01:34:25.280Z,6.42
2023-04-23T01:36:59.032Z,6.42
2023-04-23T01:39:32.048Z,6.39
2023-04-23T01:42:08.562Z,6.39
2023-04-23T01:44:41.206Z,6.37
2023-04-23T01:47:14.938Z,6.34
2023-04-23T01:49:47.241Z,6.32
2023-04-23T01:52:20.251Z,6.30
2023-04-23T01:54:52.785Z,6.28
2023-04-23T01:57:27.200Z,6.27
2023-04-23T02:00:08.393Z,6.25
2023-04-23T02:02:47.731Z,6.23
2023-04-23T02:05:22.966Z,6.22
2023-04-23T02:07:55.418Z,6.18
2023-04-23T02:10:27.731Z,6.17
2023-04-23T02:13:00.797Z,6.15
2023-04-23T02:15:38.184Z,6.14
2023-04-23T02:18:11.348Z,6.12
2023-04-23T02:20:45.338Z,6.10
2023-04-23T02:23:18.102Z,6.08
2023-04-23T02:25:51.434Z,6.05
2023-04-23T02:28:24.040Z,6.03
2023-04-23T02:30:56.464Z,6.01
2023-04-23T02:33:28.987Z,6.00
2023-04-23T02:36:02.190Z,5.99
2023-04-23T02:38:34.919Z,5.97
2023-04-23T02:41:07.973Z,5.96
2023-04-23T02:43:42.279Z,5.94
2023-04-23T02:46:15.257Z,5.93
2023-04-23T02:48:47.555Z,5.91
2023-04-23T02:51:20.035Z,5.89
2023-04-23T02:53:52.917Z,5.89
2023-04-23T02:56:26.816Z,5.87
2023-04-23T02:58:59.728Z,5.86
2023-04-23T03:01:32.373Z,5.83
2023-04-23T03:04:05.838Z,5.81
2023-04-23T03:06:38.593Z,5.79
2023-04-23T03:09:12.302Z,5.78
2023-04-23T03:11:44.893Z,5.76
2023-04-23T03:14:19.350Z,5.74
2023-04-23T03:16:52.234Z,5.72
2023-04-23T03:19:27.677Z,5.71
2023-04-23T03:22:01.087Z,5.70
2023-04-23T03:24:34.198Z,5.70
2023-04-23T03:27:08.457Z,5.69
2023-04-23T03:29:44.529Z,5.69
2023-04-23T03:32:17.067Z,5.70
2023-04-23T03:34:49.445Z,5.71
2023-04-23T03:37:22.973Z,5.71
2023-04-23T03:39:55.910Z,5.72
2023-04-23T03:42:28.662Z,5.75
2023-04-23T03:45:02.211Z,5.75
2023-04-23T03:47:37.972Z,5.77
2023-04-23T03:50:14.683Z,5.79
2023-04-23T03:52:48.087Z,5.81
2023-04-23T03:55:26.889Z,5.85
2023-04-23T03:58:01.866Z,5.88
2023-04-23T04:00:47.485Z,5.92
2023-04-23T04:03:20.292Z,5.95
2023-04-23T04:05:53.608Z,6.00
2023-04-23T04:08:26.845Z,6.06
2023-04-23T04:11:00.390Z,6.13
2023-04-23T04:13:32.993Z,6.19
2023-04-23T04:16:06.034Z,6.27
2023-04-23T04:18:39.519Z,6.34
2023-04-23T04:21:12.704Z,6.67
2023-04-23T04:23:45.657Z,8.00
2023-04-23T04:26:20.931Z,8.44
2023-04-23T04:28:53.621Z,9.29
2023-04-23T04:31:28.836Z,10.71
2023-04-23T04:34:01.956Z,10.56
2023-04-23T04:36:38.255Z,11.40
2023-04-23T04:39:13.750Z,12.04
2023-04-23T04:41:50.491Z,12.96
2023-04-23T04:44:26.690Z,14.67
2023-04-23T04:46:59.409Z,16.18
2023-04-23T04:49:32.376Z,16.64
2023-04-23T04:52:10.828Z,17.25
2023-04-23T04:54:43.380Z,18.50
2023-04-23T04:57:17.163Z,19.83
2023-04-23T04:59:50.448Z,21.05
2023-04-23T05:02:23.897Z,22.00
2023-04-23T05:04:56.491Z,22.93
2023-04-23T05:07:31.962Z,23.77
2023-04-23T05:10:04.240Z,24.07
2023-04-23T05:12:42.004Z,23.92
2023-04-23T05:15:15.621Z,22.74
2023-04-23T05:17:46.380Z,22.99
2023-04-23T05:20:19.164Z,23.84
2023-04-23T05:23:00.026Z,24.76
2023-04-23T05:25:34.680Z,25.64
2023-04-23T05:28:10.024Z,26.33
2023-04-23T05:30:44.020Z,26.70
2023-04-23T05:33:21.275Z,26.78
2023-04-23T05:35:55.700Z,26.55
2023-04-23T05:38:28.130Z,26.48
2023-04-23T05:41:00.570Z,26.40
2023-04-23T05:43:33.757Z,25.25
2023-04-23T05:46:07.793Z,23.96
2023-04-23T05:48:43.389Z,22.51
2023-04-23T05:51:16.023Z,21.45
2023-04-23T05:53:48.654Z,20.92
2023-04-23T05:56:21.277Z,20.99
2023-04-23T05:58:54.746Z,20.76
2023-04-23T06:01:27.257Z,20.43
2023-04-23T06:04:00.590Z,20.15
2023-04-23T06:06:36.010Z,20.30
2023-04-23T06:09:09.482Z,19.85
2023-04-23T06:11:42.146Z,18.98
2023-04-23T06:14:15.285Z,18.37
2023-04-23T06:16:53.621Z,17.82
2023-04-23T06:19:27.563Z,17.24
2023-04-23T06:22:00.385Z,16.89
2023-04-23T06:24:33.120Z,16.67
2023-04-23T06:27:05.810Z,16.43
2023-04-23T06:29:41.902Z,16.32
2023-04-23T06:32:17.278Z,16.35
2023-04-23T06:35:00.960Z,16.71
2023-04-23T06:37:39.477Z,17.04
2023-04-23T06:40:14.316Z,18.28
2023-04-23T06:42:48.191Z,20.04
2023-04-23T06:45:21.225Z,21.36
2023-04-23T06:47:53.877Z,22.60
2023-04-23T06:50:26.637Z,23.58
2023-04-23T06:53:00.903Z,23.88
2023-04-23T06:55:38.567Z,23.79
2023-04-23T06:58:12.750Z,23.43
2023-04-23T07:00:48.287Z,23.09
2023-04-23T07:03:22.041Z,22.80
2023-04-23T07:05:54.830Z,21.98
2023-04-23T07:08:27.508Z,22.49
2023-04-23T07:11:00.286Z,23.58
2023-04-23T07:13:33.817Z,24.85
2023-04-23T07:16:06.770Z,25.17
2023-04-23T07:18:40.684Z,25.48
2023-04-23T07:21:13.302Z,24.87
2023-04-23T07:23:46.185Z,24.61
2023-04-23T07:26:18.853Z,24.79
2023-04-23T07:28:53.000Z,24.23
2023-04-23T07:31:26.862Z,24.36
2023-04-23T07:33:59.313Z,24.96
2023-04-23T07:36:34.175Z,24.17
2023-04-23T07:39:07.777Z,23.04
2023-04-23T07:41:44.462Z,22.18
2023-04-23T07:44:16.980Z,21.51
2023-04-23T07:46:49.922Z,21.73
2023-04-23T07:49:25.869Z,22.17
2023-04-23T07:51:58.538Z,22.77
2023-04-23T07:54:30.947Z,23.23
2023-04-23T07:57:04.443Z,23.40
2023-04-23T07:59:36.724Z,22.78
2023-04-23T08:02:12.565Z,23.20
2023-04-23T08:04:45.201Z,23.47
2023-04-23T08:07:18.103Z,23.51
2023-04-23T08:09:50.586Z,23.69
2023-04-23T08:12:27.297Z,23.59
2023-04-23T08:14:59.734Z,23.16
2023-04-23T08:17:36.573Z,22.75
2023-04-23T08:20:11.673Z,22.52
2023-04-23T08:22:46.956Z,22.42
2023-04-23T08:25:19.693Z,22.24
2023-04-23T08:27:52.814Z,22.02
2023-04-23T08:30:25.229Z,21.98
2023-04-23T08:32:58.503Z,21.94
2023-04-23T08:35:32.380Z,22.02
2023-04-23T08:38:07.233Z,22.12
2023-04-23T08:40:43.747Z,22.32
2023-04-23T08:43:21.176Z,22.50
2023-04-23T08:45:54.582Z,22.82
2023-04-23T08:48:28.551Z,23.10
2023-04-23T08:51:06.656Z,23.33
2023-04-23T08:53:45.297Z,23.63
2023-04-23T08:56:18.101Z,23.87
2023-04-23T08:58:51.512Z,24.04
2023-04-23T09:01:26.459Z,24.13
2023-04-23T09:04:00.229Z,24.28
2023-04-23T09:06:34.141Z,24.43
2023-04-23T09:09:08.129Z,24.64
2023-04-23T09:11:42.409Z,24.62
2023-04-23T09:14:15.951Z,24.69
2023-04-23T09:16:49.275Z,24.79
2023-04-23T09:19:22.045Z,24.89
2023-04-23T09:21:59.436Z,25.07
2023-04-23T09:24:31.779Z,25.13
2023-04-23T09:27:04.509Z,25.21
2023-04-23T09:29:36.890Z,25.41
2023-04-23T09:32:11.598Z,25.49
2023-04-23T09:34:47.314Z,25.68
2023-04-23T09:37:21.424Z,25.66
2023-04-23T09:39:57.082Z,25.59
2023-04-23T09:42:31.514Z,25.59
2023-04-23T09:45:07.526Z,25.66
2023-04-23T09:47:49.706Z,25.67
2023-04-23T09:50:32.678Z,25.87
2023-04-23T09:53:06.375Z,25.86
2023-04-23T09:55:46.955Z,26.02
2023-04-23T09:58:29.077Z,25.93
2023-04-23T10:01:09.787Z,26.02
2023-04-23T10:03:46.833Z,26.04
2023-04-23T10:06:39.480Z,26.01
2023-04-23T10:09:12.224Z,25.96
2023-04-23T10:11:46.011Z,25.96
2023-04-23T10:14:18.333Z,25.90
2023-04-23T10:16:53.729Z,25.95
2023-04-23T10:19:27.681Z,26.17
2023-04-23T10:22:18.438Z,26.43
2023-04-23T10:24:58.797Z,26.32
2023-04-23T10:27:44.536Z,26.13
2023-04-23T10:30:24.717Z,26.05
2023-04-23T10:32:58.488Z,26.16
2023-04-23T10:35:32.533Z,26.15
2023-04-23T10:38:10.358Z,26.22
2023-04-23T10:40:46.771Z,26.39
2023-04-23T10:43:22.205Z,26.54
2023-04-23T10:45:54.816Z,26.57
2023-04-23T10:48:29.097Z,26.60
2023-04-23T10:51:30.579Z,26.77
2023-04-23T10:53:58.500Z,26.86
2023-04-23T10:56:35.170Z,26.87
2023-04-23T10:59:09.792Z,26.77
2023-04-23T11:01:45.033Z,26.54
2023-04-23T11:04:29.224Z,26.54
2023-04-23T11:07:10.957Z,26.49
2023-04-23T11:09:47.931Z,26.55
2023-04-23T11:15:34.865Z,26.60
2023-04-23T11:18:07.808Z,26.84
2023-04-23T11:20:43.785Z,26.82
2023-04-23T11:23:33.759Z,26.77
2023-04-23T11:26:09.145Z,26.72
2023-04-23T11:28:44.708Z,26.68
2023-04-23T11:31:17.960Z,26.84
2023-04-23T11:33:48.863Z,26.92
2023-04-23T11:36:21.335Z,26.73
2023-04-23T11:39:03.220Z,26.60
2023-04-23T11:41:37.935Z,26.65
2023-04-23T11:44:11.999Z,26.82
2023-04-23T11:46:52.490Z,26.84
2023-04-23T11:49:26.261Z,26.50
2023-04-23T11:52:06.432Z,26.34
2023-04-23T11:54:45.528Z,26.41
2023-04-23T11:57:18.013Z,26.35
2023-04-23T11:59:50.944Z,26.24
2023-04-23T12:02:30.031Z,26.23
2023-04-23T12:05:10.252Z,26.21
2023-04-23T12:07:45.179Z,26.25
2023-04-23T12:10:23.319Z,26.31
2023-04-23T12:12:55.993Z,26.11
2023-04-23T12:15:29.798Z,26.16
2023-04-23T12:18:13.302Z,26.03
2023-04-23T12:20:46.284Z,25.63
2023-04-23T12:23:19.458Z,25.52
2023-04-23T12:25:55.088Z,25.60
2023-04-23T12:28:28.788Z,25.41
2023-04-23T12:31:08.547Z,25.24
2023-04-23T12:33:42.305Z,25.27
2023-04-23T12:36:17.805Z,25.25
2023-04-23T12:38:54.322Z,25.28
2023-04-23T12:41:26.644Z,25.25
2023-04-23T12:44:01.748Z,25.25
2023-04-23T12:46:45.934Z,25.22
2023-04-23T12:49:18.676Z,25.36
2023-04-23T12:51:52.852Z,25.33
2023-04-23T12:54:27.101Z,25.27
2023-04-23T12:57:02.606Z,25.17
2023-04-23T12:59:39.969Z,25.20
2023-04-23T13:02:13.890Z,25.22
2023-04-23T13:04:47.731Z,25.18
2023-04-23T13:07:20.165Z,25.26
2023-04-23T13:09:52.773Z,25.20
2023-04-23T13:12:28.616Z,24.94
2023-04-23T13:15:01.915Z,24.75
2023-04-23T13:17:38.392Z,24.64
2023-04-23T13:20:12.548Z,24.73
2023-04-23T13:22:45.902Z,24.73
2023-04-23T13:25:18.307Z,24.66
2023-04-23T13:27:50.986Z,24.61
2023-04-23T13:30:23.673Z,24.62
2023-04-23T13:32:57.862Z,24.61
2023-04-23T13:35:31.251Z,24.57
2023-04-23T13:38:12.067Z,24.46
2023-04-23T13:40:45.734Z,24.40
2023-04-23T13:43:18.437Z,24.35
2023-04-23T13:45:51.214Z,24.31
2023-04-23T13:48:28.889Z,24.05
2023-04-23T13:51:07.091Z,23.83
2023-04-23T13:53:46.785Z,23.75
2023-04-23T13:56:19.350Z,23.73
2023-04-23T13:58:53.586Z,23.62
2023-04-23T14:01:27.330Z,23.54
2023-04-23T14:03:59.972Z,23.54
2023-04-23T14:06:43.416Z,23.52
2023-04-23T14:09:15.937Z,23.49
2023-04-23T14:11:48.534Z,23.52
2023-04-23T14:14:21.182Z,23.50
2023-04-23T14:16:54.682Z,23.46
2023-04-23T14:19:30.693Z,23.39
2023-04-23T14:22:03.170Z,23.33
2023-04-23T14:24:50.911Z,23.25
2023-04-23T14:27:23.611Z,23.20
2023-04-23T14:30:06.359Z,23.15
2023-04-23T14:32:48.463Z,23.11
2023-04-23T14:35:29.422Z,23.10
2023-04-23T14:38:15.345Z,23.03
2023-04-23T14:40:50.877Z,22.98
2023-04-23T14:43:23.421Z,22.97
2023-04-23T14:45:56.174Z,22.97
2023-04-23T14:48:30.168Z,22.99
2023-04-23T14:51:02.613Z,22.98
2023-04-23T14:53:36.383Z,22.99
2023-04-23T14:56:09.336Z,22.99
2023-04-23T14:58:43.855Z,22.92
2023-04-23T15:01:16.793Z,22.80
2023-04-23T15:03:54.012Z,22.79
2023-04-23T15:06:29.087Z,22.74
2023-04-23T15:09:02.896Z,22.72
2023-04-23T15:11:35.673Z,22.68
2023-04-23T15:14:20.420Z,22.66
2023-04-23T15:16:53.126Z,22.60
2023-04-23T15:19:33.676Z,22.57
2023-04-23T15:22:06.093Z,22.54
2023-04-23T15:24:38.877Z,22.51
2023-04-23T15:27:15.126Z,22.51
2023-04-23T15:29:47.748Z,22.47
2023-04-23T15:32:20.385Z,22.44
2023-04-23T15:34:52.974Z,22.42
2023-04-23T15:37:27.965Z,22.40
2023-04-23T15:40:01.368Z,22.39
2023-04-23T15:42:36.393Z,22.35
2023-04-23T15:45:11.357Z,22.33
2023-04-23T15:47:45.432Z,22.28
2023-04-23T15:50:23.215Z,22.19
2023-04-23T15:52:58.535Z,22.06
2023-04-23T15:55:34.708Z,21.89
2023-04-23T15:58:10.402Z,21.77
2023-04-23T16:00:45.680Z,21.67
2023-04-23T16:03:20.952Z,21.63
2023-04-23T16:05:54.442Z,21.58
2023-04-23T16:08:27.147Z,21.52
2023-04-23T16:10:59.770Z,21.49
2023-04-23T16:13:32.468Z,21.45
2023-04-23T16:16:05.533Z,21.44
2023-04-23T16:18:38.125Z,21.40
2023-04-23T16:21:18.547Z,21.38
2023-04-23T16:23:58.202Z,21.34
2023-04-23T16:26:35.326Z,21.31
2023-04-23T16:29:21.479Z,21.23
2023-04-23T16:31:55.480Z,21.17
2023-04-23T16:34:28.089Z,21.12
2023-04-23T16:37:00.950Z,21.08
2023-04-23T16:39:38.405Z,21.03
2023-04-23T16:42:10.790Z,20.96
2023-04-23T16:44:46.456Z,20.88
2023-04-23T16:47:19.488Z,20.82
2023-04-23T16:49:53.178Z,20.74
2023-04-23T16:52:25.719Z,20.66
2023-04-23T16:54:58.250Z,20.58
2023-04-23T16:57:35.183Z,20.50
2023-04-23T17:00:10.067Z,20.43
2023-04-23T17:02:46.270Z,20.33
2023-04-23T17:05:24.083Z,20.25
2023-04-23T17:07:57.819Z,20.13
2023-04-23T17:10:31.307Z,20.03
2023-04-23T17:13:04.227Z,19.93
2023-04-23T17:15:36.958Z,19.83
2023-04-23T17:18:11.253Z,19.74
2023-04-23T17:20:45.991Z,19.63
2023-04-23T17:23:18.515Z,19.53
2023-04-23T17:25:53.718Z,19.41
2023-04-23T17:28:26.250Z,19.28
2023-04-23T17:30:58.917Z,19.13
2023-04-23T17:33:31.539Z,18.99
2023-04-23T17:36:04.274Z,18.85
2023-04-23T17:38:37.423Z,18.72
2023-04-23T17:41:11.469Z,18.58
2023-04-23T17:43:46.791Z,18.43
2023-04-23T17:46:19.524Z,18.25
2023-04-23T17:48:52.343Z,18.08
2023-04-23T17:51:27.085Z,17.95
2023-04-23T17:54:01.618Z,17.81
2023-04-23T17:56:34.787Z,17.69
2023-04-23T17:59:08.085Z,17.54
2023-04-23T18:01:43.082Z,17.41
2023-04-23T18:04:17.928Z,17.26
2023-04-23T18:06:50.587Z,17.10
2023-04-23T18:09:23.309Z,16.92
2023-04-23T18:11:59.349Z,16.75
2023-04-23T18:14:32.977Z,16.59
2023-04-23T18:17:05.452Z,16.44
2023-04-23T18:19:37.822Z,16.31
2023-04-23T18:22:12.608Z,16.19
2023-04-23T18:24:46.927Z,16.09
2023-04-23T18:27:19.863Z,15.98
2023-04-23T18:29:53.807Z,15.85
2023-04-23T18:32:34.423Z,15.73
2023-04-23T18:35:10.713Z,15.64
2023-04-23T18:37:49.914Z,15.54
2023-04-23T18:40:23.218Z,15.48
2023-04-23T18:42:56.210Z,15.42
2023-04-23T18:45:31.555Z,15.38
2023-04-23T18:48:44.374Z,15.29
2023-04-23T18:51:33.441Z,15.23
2023-04-23T18:54:08.477Z,15.19
2023-04-23T18:56:43.327Z,15.17
2023-04-23T18:59:16.427Z,15.12
2023-04-23T19:01:50.378Z,15.06
2023-04-23T19:04:23.792Z,15.01
2023-04-23T19:06:57.561Z,14.96
2023-04-23T19:09:30.284Z,14.91
2023-04-23T19:12:03.825Z,14.90
2023-04-23T19:14:36.543Z,14.88
2023-04-23T19:17:09.274Z,14.85
2023-04-23T19:19:43.444Z,14.83
2023-04-23T19:22:16.388Z,14.81
2023-04-23T19:24:49.050Z,14.80
2023-04-23T19:27:21.883Z,14.77
2023-04-23T19:29:56.049Z,14.76
2023-04-23T19:32:28.641Z,14.74
2023-04-23T19:35:01.320Z,14.72
2023-04-23T19:37:33.939Z,14.69
2023-04-23T19:40:09.448Z,14.65
2023-04-23T19:42:42.566Z,14.61
2023-04-23T19:45:18.667Z,14.59
2023-04-23T19:47:51.193Z,14.57
2023-04-23T19:50:24.457Z,14.55
2023-04-23T19:52:57.129Z,14.53
2023-04-23T19:55:32.167Z,14.51
2023-04-23T19:58:06.775Z,14.49
2023-04-23T20:00:41.555Z,14.45
2023-04-23T20:03:17.597Z,14.42
2023-04-23T20:05:52.735Z,14.38
2023-04-23T20:08:29.985Z,14.33
2023-04-23T20:11:03.333Z,14.29
2023-04-23T20:13:39.260Z,14.25
2023-04-23T20:16:14.897Z,14.23
2023-04-23T20:18:47.435Z,14.18
2023-04-23T20:21:20.048Z,14.12
2023-04-23T20:23:52.988Z,14.10
2023-04-23T20:26:26.459Z,14.08
2023-04-23T20:29:06.554Z,14.04
2023-04-23T20:31:39.336Z,14.02
2023-04-23T20:34:14.955Z,14.01
2023-04-23T20:36:48.271Z,14.02
2023-04-23T20:39:24.411Z,14.01
2023-04-23T20:41:58.125Z,14.01
2023-04-23T20:44:33.748Z,13.97
2023-04-23T20:47:09.037Z,13.89
2023-04-23T20:49:42.786Z,13.88
2023-04-23T20:52:15.872Z,13.84
2023-04-23T20:54:48.492Z,13.79
2023-04-23T20:57:21.626Z,13.75
2023-04-23T20:59:54.638Z,13.70
2023-04-23T21:02:27.228Z,13.60
2023-04-23T21:05:01.183Z,13.50
2023-04-23T21:07:36.904Z,13.45
2023-04-23T21:10:10.697Z,13.40
2023-04-23T21:12:43.924Z,13.36
2023-04-23T21:15:18.003Z,13.29
2023-04-23T21:17:48.653Z,13.21
2023-04-23T21:20:21.080Z,13.11
2023-04-23T21:22:53.380Z,13.05
2023-04-23T21:25:26.946Z,12.97
2023-04-23T21:27:59.920Z,12.84
2023-04-23T21:30:48.582Z,12.72
2023-04-23T21:33:22.250Z,12.65
2023-04-23T21:35:56.206Z,12.57
2023-04-23T21:38:30.652Z,12.48
2023-04-23T21:41:03.594Z,12.41
2023-04-23T21:43:36.747Z,12.34
2023-04-23T21:46:09.725Z,12.30
2023-04-23T21:48:42.620Z,12.23
2023-04-23T21:51:15.731Z,12.13
2023-04-23T21:53:48.382Z,12.07
2023-04-23T21:56:21.994Z,12.01
2023-04-23T21:58:55.093Z,11.95
2023-04-23T22:01:27.993Z,11.88
2023-04-23T22:04:01.875Z,11.84
2023-04-23T22:06:35.633Z,11.78
2023-04-23T22:09:08.578Z,11.70
2023-04-23T22:11:48.873Z,11.65
2023-04-23T22:14:28.022Z,11.56
2023-04-23T22:17:02.354Z,11.51
2023-04-23T22:19:37.579Z,11.49
2023-04-23T22:22:10.517Z,11.45
2023-04-23T22:24:42.865Z,11.39
2023-04-23T22:27:16.024Z,11.32
2023-04-23T22:29:48.719Z,11.22
2023-04-23T22:32:21.582Z,11.17
2023-04-23T22:34:56.478Z,11.13
2023-04-23T22:37:30.160Z,11.10
2023-04-23T22:40:04.260Z,11.06
2023-04-23T22:42:37.811Z,11.02
2023-04-23T22:45:15.906Z,10.99
2023-04-23T22:47:49.094Z,10.97
2023-04-23T22:50:22.595Z,10.93
2023-04-23T22:52:56.643Z,10.91
2023-04-23T22:55:29.184Z,10.90
2023-04-23T22:58:03.964Z,10.90
2023-04-23T23:00:37.621Z,10.89
2023-04-23T23:03:10.189Z,10.86
2023-04-23T23:05:50.493Z,10.85
2023-04-23T23:08:23.234Z,10.83
2023-04-23T23:10:56.468Z,10.81
2023-04-23T23:13:29.516Z,10.80
2023-04-23T23:16:06.138Z,10.77
2023-04-23T23:18:39.203Z,10.75
2023-04-23T23:21:11.886Z,10.73
2023-04-23T23:23:46.858Z,10.71
2023-04-23T23:26:20.229Z,10.69
2023-04-23T23:28:52.865Z,10.65
2023-04-23T23:31:26.311Z,10.63
2023-04-23T23:33:58.639Z,10.61
2023-04-23T23:36:32.078Z,10.58
2023-04-23T23:39:04.733Z,10.53
2023-04-23T23:41:37.487Z,10.43
2023-04-23T23:44:10.335Z,10.33
2023-04-23T23:46:44.435Z,10.24
2023-04-23T23:49:15.170Z,10.16
2023-04-23T23:51:48.499Z,10.09
2023-04-23T23:54:23.851Z,10.02
2023-04-23T23:56:57.217Z,9.88
2023-04-23T23:59:29.640Z,9.79
